createdAt,value
2022-12-12T00:01:13.993Z,100793.34
2022-12-12T00:03:42.084Z,100799.72
2022-12-12T00:06:10.087Z,100789.94
2022-12-12T00:08:38.102Z,100789.94
2022-12-12T00:11:07.744Z,100797.03
2022-12-12T00:13:36.394Z,100793.34
2022-12-12T00:16:06.144Z,100785.31
2022-12-12T00:18:34.117Z,100776.53
2022-12-12T00:21:02.066Z,100775.56
2022-12-12T00:23:29.997Z,100779.22
2022-12-12T00:25:59.985Z,100776.72
2022-12-12T00:28:29.622Z,100781.91
2022-12-12T00:30:57.673Z,100795.31
2022-12-12T00:33:25.765Z,100781.91
2022-12-12T00:35:55.457Z,100784.56
2022-12-12T00:38:25.121Z,100777.53
2022-12-12T00:40:57.636Z,100777.53
2022-12-12T00:43:25.818Z,100782.91
2022-12-12T00:45:55.373Z,100774.84
2022-12-12T00:48:23.357Z,100766.81
2022-12-12T00:50:51.330Z,100728.66
2022-12-12T00:53:19.324Z,100767.66
2022-12-12T00:55:47.823Z,100765.97
2022-12-12T00:58:15.763Z,100768.50
2022-12-12T01:00:43.860Z,100768.50
2022-12-12T01:03:13.313Z,100773.84
2022-12-12T01:05:41.585Z,100765.41
2022-12-12T01:08:09.605Z,100772.03
2022-12-12T01:10:37.665Z,100752.81
2022-12-12T01:13:05.834Z,100770.47
2022-12-12T01:15:33.852Z,100771.34
2022-12-12T01:18:01.832Z,100772.16
2022-12-12T01:20:31.191Z,100782.06
2022-12-12T01:22:59.203Z,100776.72
2022-12-12T01:25:27.550Z,100779.22
2022-12-12T01:27:55.499Z,100778.38
2022-12-12T01:30:24.461Z,100777.53
2022-12-12T01:32:52.621Z,100781.91
2022-12-12T01:35:20.691Z,100781.91
2022-12-12T01:37:50.400Z,100795.31
2022-12-12T01:40:21.308Z,100789.13
2022-12-12T01:42:49.665Z,100782.91
2022-12-12T01:45:54.845Z,100785.56
2022-12-12T01:48:25.099Z,100788.25
2022-12-12T01:50:53.422Z,100779.38
2022-12-12T01:53:23.383Z,100765.13
2022-12-12T01:55:51.921Z,100772.16
2022-12-12T01:58:19.894Z,100771.34
2022-12-12T02:00:47.903Z,100765.41
2022-12-12T02:03:15.880Z,100765.13
2022-12-12T02:05:49.145Z,100775.84
2022-12-12T02:08:19.053Z,100773.16
2022-12-12T02:10:48.824Z,100772.44
2022-12-12T02:13:20.927Z,100777.53
2022-12-12T02:16:01.243Z,100770.47
2022-12-12T02:18:39.133Z,100770.47
2022-12-12T02:21:15.595Z,100772.16
2022-12-12T02:24:26.344Z,100770.47
2022-12-12T02:27:29.744Z,100763.44
2022-12-12T02:30:12.669Z,100763.44
2022-12-12T02:33:20.495Z,100753.53
2022-12-12T02:36:08.572Z,100754.94
2022-12-12T02:38:45.128Z,100764.41
2022-12-12T02:41:19.444Z,100768.81
2022-12-12T02:43:57.570Z,100767.94
2022-12-12T02:46:31.411Z,100774.31
2022-12-12T02:49:03.335Z,100749.56
2022-12-12T02:51:34.614Z,100771.47
2022-12-12T02:54:05.423Z,100763.72
2022-12-12T02:56:52.826Z,100762.59
2022-12-12T02:59:27.039Z,100764.41
2022-12-12T03:02:10.518Z,100761.72
2022-12-12T03:05:18.825Z,100756.34
2022-12-12T03:08:03.369Z,100761.72
2022-12-12T03:10:42.577Z,100755.53
2022-12-12T03:13:15.461Z,100751.00
2022-12-12T03:15:54.106Z,100752.72
2022-12-12T03:18:29.101Z,100756.34
2022-12-12T03:21:05.524Z,100745.63
2022-12-12T03:23:40.668Z,100752.72
2022-12-12T03:26:15.204Z,100744.09
2022-12-12T03:28:48.947Z,100756.34
2022-12-12T03:31:21.238Z,100757.22
2022-12-12T03:33:54.582Z,100763.44
2022-12-12T03:36:27.262Z,100760.75
2022-12-12T03:39:00.833Z,100768.81
2022-12-12T03:41:33.269Z,100767.09
2022-12-12T03:44:07.063Z,100770.47
2022-12-12T03:46:42.218Z,100775.00
2022-12-12T03:49:16.566Z,100777.66
2022-12-12T03:51:48.321Z,100781.22
2022-12-12T03:54:24.264Z,100781.22
2022-12-12T03:56:58.713Z,100744.88
2022-12-12T03:59:33.941Z,100782.22
2022-12-12T04:02:09.367Z,100781.22
2022-12-12T04:04:44.275Z,100780.34
2022-12-12T04:07:17.407Z,100790.25
2022-12-12T04:10:04.752Z,100788.25
2022-12-12T04:12:57.180Z,100789.06
2022-12-12T04:15:50.736Z,100800.97
2022-12-12T04:18:27.122Z,100801.94
2022-12-12T04:21:21.824Z,100811.69
2022-12-12T04:23:58.059Z,100813.38
2022-12-12T04:26:42.829Z,100808.03
2022-12-12T04:29:21.858Z,100818.75
2022-12-12T04:31:56.478Z,100813.38
2022-12-12T04:34:31.865Z,100776.34
2022-12-12T04:37:00.595Z,100806.34
2022-12-12T04:39:30.425Z,100791.75
2022-12-12T04:42:04.835Z,100800.97
2022-12-12T04:44:34.737Z,100795.63
2022-12-12T04:47:06.562Z,100799.25
2022-12-12T04:49:36.898Z,100802.66
2022-12-12T04:52:08.734Z,100794.63
2022-12-12T04:54:43.829Z,100796.44
2022-12-12T04:57:20.085Z,100802.66
2022-12-12T04:59:48.270Z,100797.31
2022-12-12T05:02:24.744Z,100798.16
2022-12-12T05:04:58.356Z,100797.31
2022-12-12T05:07:39.469Z,100795.63
2022-12-12T05:10:12.063Z,100802.94
2022-12-12T05:12:47.335Z,100811.97
2022-12-12T05:15:16.468Z,100794.72
2022-12-12T05:17:47.268Z,100803.94
2022-12-12T05:20:16.227Z,100811.97
2022-12-12T05:22:44.189Z,100814.66
2022-12-12T05:25:13.962Z,100808.28
2022-12-12T05:27:42.126Z,100810.97
2022-12-12T05:30:12.674Z,100815.34
2022-12-12T05:32:40.703Z,100809.97
2022-12-12T05:35:11.337Z,100807.28
2022-12-12T05:37:39.516Z,100809.97
2022-12-12T05:40:09.553Z,100802.94
2022-12-12T05:42:37.559Z,100815.34
2022-12-12T05:45:06.456Z,100804.63
2022-12-12T05:47:36.359Z,100805.47
2022-12-12T05:50:05.673Z,100800.38
2022-12-12T05:52:33.701Z,100804.63
2022-12-12T05:55:01.704Z,100799.25
2022-12-12T05:57:29.671Z,100794.75
2022-12-12T05:59:57.626Z,100803.78
2022-12-12T06:02:25.681Z,100801.25
2022-12-12T06:04:55.108Z,100806.59
2022-12-12T06:07:23.060Z,100799.97
2022-12-12T06:09:51.009Z,100798.16
2022-12-12T06:12:18.961Z,100798.16
2022-12-12T06:14:46.954Z,100799.97
2022-12-12T06:17:15.383Z,100791.66
2022-12-12T06:19:43.499Z,100798.44
2022-12-12T06:22:12.897Z,100796.47
2022-12-12T06:24:40.907Z,100799.84
2022-12-12T06:27:08.854Z,100790.84
2022-12-12T06:29:36.855Z,100795.34
2022-12-12T06:32:05.636Z,100801.28
2022-12-12T06:34:33.640Z,100810.03
2022-12-12T06:37:02.297Z,100800.28
2022-12-12T06:39:31.656Z,100809.06
2022-12-12T06:41:59.629Z,100801.72
2022-12-12T06:44:27.654Z,100807.22
2022-12-12T06:46:55.633Z,100808.06
2022-12-12T06:49:23.568Z,100800.88
2022-12-12T06:51:51.549Z,100795.38
2022-12-12T06:54:20.256Z,100804.13
2022-12-12T06:56:49.581Z,100802.28
2022-12-12T06:59:17.872Z,100803.16
2022-12-12T07:01:47.046Z,100806.66
2022-12-12T07:04:15.879Z,100806.78
2022-12-12T07:06:44.004Z,100807.50
2022-12-12T07:09:12.186Z,100805.81
2022-12-12T07:11:40.819Z,100814.56
2022-12-12T07:14:12.073Z,100804.66
2022-12-12T07:16:40.107Z,100816.56
2022-12-12T07:19:08.680Z,100827.00
2022-12-12T07:21:36.654Z,100819.66
2022-12-12T07:24:04.829Z,100819.66
2022-12-12T07:26:32.831Z,100827.00
2022-12-12T07:29:03.781Z,100832.09
2022-12-12T07:31:33.256Z,100822.34
2022-12-12T07:34:01.310Z,100829.41
2022-12-12T07:36:29.279Z,100828.69
2022-12-12T07:38:57.265Z,100825.28
2022-12-12T07:41:25.224Z,100827.00
2022-12-12T07:43:53.510Z,100821.66
2022-12-12T07:46:24.395Z,100824.31
2022-12-12T07:48:54.352Z,100825.28
2022-12-12T07:51:23.184Z,100828.69
2022-12-12T07:53:51.204Z,100822.47
2022-12-12T07:56:20.620Z,100817.97
2022-12-12T07:58:48.967Z,100825.03
2022-12-12T08:01:18.852Z,100819.66
2022-12-12T08:03:48.017Z,100826.75
2022-12-12T08:06:18.105Z,100817.69
2022-12-12T08:08:46.381Z,100823.19
2022-12-12T08:11:16.722Z,100819.66
2022-12-12T08:13:45.215Z,100784.75
2022-12-12T08:16:15.758Z,100826.75
2022-12-12T08:18:44.029Z,100801.28
2022-12-12T08:21:13.544Z,100823.06
2022-12-12T08:23:43.825Z,100830.09
2022-12-12T08:26:14.001Z,100830.97
2022-12-12T08:28:44.888Z,100832.78
2022-12-12T08:31:14.337Z,100839.88
2022-12-12T08:33:42.471Z,100833.50
2022-12-12T08:36:16.161Z,100840.56
2022-12-12T08:38:46.011Z,100827.00
2022-12-12T08:41:15.051Z,100835.19
2022-12-12T08:43:44.683Z,100834.22
2022-12-12T08:46:18.464Z,100830.69
2022-12-12T08:48:46.993Z,100833.22
2022-12-12T08:51:15.243Z,100832.38
2022-12-12T08:53:46.890Z,100838.59
2022-12-12T08:56:15.111Z,100838.88
2022-12-12T08:58:43.393Z,100824.47
2022-12-12T09:01:12.542Z,100834.22
2022-12-12T09:03:40.941Z,100833.22
2022-12-12T09:06:10.311Z,100830.09
2022-12-12T09:08:38.393Z,100832.50
2022-12-12T09:11:08.382Z,100822.06
2022-12-12T09:13:37.801Z,100831.81
2022-12-12T09:16:06.311Z,100826.47
2022-12-12T09:18:34.802Z,100837.75
2022-12-12T09:21:02.945Z,100836.06
2022-12-12T09:23:31.288Z,100833.22
2022-12-12T09:25:59.348Z,100826.19
2022-12-12T09:28:28.712Z,100838.59
2022-12-12T09:30:56.705Z,100834.91
2022-12-12T09:33:24.660Z,100836.63
2022-12-12T09:35:59.597Z,100842.00
2022-12-12T09:38:27.795Z,100834.91
2022-12-12T09:40:58.147Z,100840.28
2022-12-12T09:43:32.386Z,100833.22
2022-12-12T09:46:02.855Z,100833.50
2022-12-12T09:48:39.940Z,100837.19
2022-12-12T09:51:08.352Z,100828.41
2022-12-12T09:53:37.520Z,100830.81
2022-12-12T09:56:11.961Z,100822.78
2022-12-12T09:58:51.302Z,100829.84
2022-12-12T10:01:27.516Z,100833.38
2022-12-12T10:04:07.666Z,100829.16
2022-12-12T10:06:42.042Z,100821.09
2022-12-12T10:09:32.820Z,100826.47
2022-12-12T10:12:07.992Z,100812.06
2022-12-12T10:14:40.973Z,100814.00
2022-12-12T10:17:15.863Z,100808.66
2022-12-12T10:19:49.853Z,100808.66
2022-12-12T10:22:25.906Z,100815.72
2022-12-12T10:24:58.808Z,100803.28
2022-12-12T10:27:26.805Z,100799.63
2022-12-12T10:30:15.888Z,100810.38
2022-12-12T10:32:59.127Z,100802.31
2022-12-12T10:35:35.143Z,100800.59
2022-12-12T10:38:18.805Z,100798.78
2022-12-12T10:40:54.781Z,100807.81
2022-12-12T10:43:27.855Z,100796.78
2022-12-12T10:46:10.926Z,100803.56
2022-12-12T10:48:40.395Z,100806.97
2022-12-12T10:51:12.742Z,100808.66
2022-12-12T10:53:43.223Z,100803.28
2022-12-12T10:56:13.436Z,100798.78
2022-12-12T10:58:43.025Z,100796.22
2022-12-12T11:01:38.410Z,100792.56
2022-12-12T11:04:10.102Z,100780.13
2022-12-12T11:06:40.539Z,100785.50
2022-12-12T11:09:16.869Z,100780.13
2022-12-12T11:11:59.263Z,100771.81
2022-12-12T11:14:36.541Z,100779.00
2022-12-12T11:17:22.153Z,100779.28
2022-12-12T11:19:50.431Z,100775.06
2022-12-12T11:22:18.567Z,100781.56
2022-12-12T11:24:48.352Z,100789.72
2022-12-12T11:27:23.005Z,100790.69
2022-12-12T11:29:53.630Z,100789.03
2022-12-12T11:32:26.540Z,100780.13
2022-12-12T11:34:56.858Z,100781.25
2022-12-12T11:37:29.032Z,100775.88
2022-12-12T11:39:58.402Z,100775.88
2022-12-12T11:42:29.341Z,100782.09
2022-12-12T11:45:01.910Z,100777.56
2022-12-12T11:47:38.502Z,100778.28
2022-12-12T11:50:19.698Z,100777.16
2022-12-12T11:52:48.491Z,100780.69
2022-12-12T11:55:18.471Z,100775.31
2022-12-12T11:58:08.904Z,100777.00
2022-12-12T12:00:45.978Z,100769.97
2022-12-12T12:03:30.405Z,100768.81
2022-12-12T12:06:18.296Z,100766.28
2022-12-12T12:09:07.165Z,100768.00
2022-12-12T12:11:43.278Z,100775.06
2022-12-12T12:14:28.456Z,100764.59
2022-12-12T12:17:05.893Z,100755.56
2022-12-12T12:19:44.256Z,100751.06
2022-12-12T12:22:27.558Z,100762.63
2022-12-12T12:25:10.031Z,100762.63
2022-12-12T12:27:44.852Z,100761.78
2022-12-12T12:30:21.752Z,100757.28
2022-12-12T12:33:17.409Z,100753.59
2022-12-12T12:35:57.778Z,100757.28
2022-12-12T12:38:36.402Z,100764.31
2022-12-12T12:41:22.893Z,100755.41
2022-12-12T12:44:05.627Z,100756.28
2022-12-12T12:46:42.643Z,100749.38
2022-12-12T12:49:16.740Z,100752.59
2022-12-12T12:51:50.796Z,100761.50
2022-12-12T12:54:25.108Z,100748.94
2022-12-12T12:56:59.730Z,100749.91
2022-12-12T12:59:34.916Z,100757.00
2022-12-12T13:02:12.061Z,100752.47
2022-12-12T13:04:45.145Z,100746.13
2022-12-12T13:07:20.159Z,100712.34
2022-12-12T13:09:56.293Z,100751.34
2022-12-12T13:12:30.734Z,100744.28
2022-12-12T13:15:02.808Z,100746.00
2022-12-12T13:17:46.554Z,100753.03
2022-12-12T13:20:19.170Z,100749.63
2022-12-12T13:22:57.459Z,100747.94
2022-12-12T13:25:36.253Z,100754.31
2022-12-12T13:28:11.986Z,100720.97
2022-12-12T13:30:54.509Z,100762.63
2022-12-12T13:33:41.787Z,100755.56
2022-12-12T13:36:16.068Z,100755.84
2022-12-12T13:38:50.631Z,100753.28
2022-12-12T13:41:18.836Z,100757.84
2022-12-12T13:43:49.127Z,100750.75
2022-12-12T13:46:42.020Z,100754.44
2022-12-12T13:49:24.588Z,100766.84
2022-12-12T13:51:52.578Z,100754.44
2022-12-12T13:54:47.071Z,100765.28
2022-12-12T13:57:23.573Z,100765.28
2022-12-12T14:00:22.742Z,100757.25
2022-12-12T14:03:02.097Z,100760.06
2022-12-12T14:05:33.840Z,100758.38
2022-12-12T14:08:06.954Z,100760.34
2022-12-12T14:10:38.141Z,100766.56
2022-12-12T14:13:30.535Z,100755.97
2022-12-12T14:16:05.317Z,100762.03
2022-12-12T14:18:39.068Z,100759.63
2022-12-12T14:21:11.704Z,100770.94
2022-12-12T14:23:42.453Z,100768.25
2022-12-12T14:26:51.815Z,100762.03
2022-12-12T14:29:26.452Z,100767.41
2022-12-12T14:32:07.882Z,100771.94
2022-12-12T14:34:44.542Z,100765.13
2022-12-12T14:37:33.743Z,100769.38
2022-12-12T14:40:05.565Z,100776.72
2022-12-12T14:43:21.414Z,100760.63
2022-12-12T14:45:38.424Z,100762.31
2022-12-12T14:48:11.824Z,100756.13
2022-12-12T14:50:41.116Z,100752.72
2022-12-12T14:53:17.498Z,100759.22
2022-12-12T14:55:52.345Z,100754.41
2022-12-12T14:58:23.858Z,100762.59
2022-12-12T15:00:54.762Z,100756.94
2022-12-12T15:03:30.536Z,100754.41
2022-12-12T15:06:37.443Z,100752.56
2022-12-12T15:09:29.427Z,100748.22
2022-12-12T15:12:13.432Z,100746.50
2022-12-12T15:14:56.188Z,100758.06
2022-12-12T15:17:28.545Z,100751.84
2022-12-12T15:19:58.990Z,100744.81
2022-12-12T15:22:29.737Z,100748.50
2022-12-12T15:24:59.899Z,100751.03
2022-12-12T15:27:31.513Z,100750.16
2022-12-12T15:30:02.545Z,100746.78
2022-12-12T15:32:31.150Z,100745.94
2022-12-12T15:35:05.108Z,100738.31
2022-12-12T15:37:34.967Z,100744.81
2022-12-12T15:40:19.666Z,100748.50
2022-12-12T15:42:51.465Z,100751.84
2022-12-12T15:45:25.884Z,100741.41
2022-12-12T15:47:55.388Z,100755.53
2022-12-12T15:50:25.708Z,100752.13
2022-12-12T15:53:03.069Z,100756.53
2022-12-12T15:55:31.327Z,100752.41
2022-12-12T15:57:59.621Z,100754.69
2022-12-12T16:00:37.084Z,100757.34
2022-12-12T16:03:19.143Z,100748.50
2022-12-12T16:05:59.599Z,100748.50
2022-12-12T16:08:31.970Z,100756.66
2022-12-12T16:11:01.229Z,100745.94
2022-12-12T16:13:37.186Z,100741.41
2022-12-12T16:16:39.007Z,100737.75
2022-12-12T16:19:18.184Z,100736.03
2022-12-12T16:21:46.244Z,100735.22
2022-12-12T16:24:22.762Z,100730.69
2022-12-12T16:26:50.838Z,100728.00
2022-12-12T16:29:19.010Z,100736.03
2022-12-12T16:31:49.646Z,100733.38
2022-12-12T16:34:18.066Z,100736.03
2022-12-12T16:36:46.480Z,100731.69
2022-12-12T16:39:16.916Z,100721.66
2022-12-12T16:41:44.959Z,100727.03
2022-12-12T16:44:12.983Z,100716.31
2022-12-12T16:46:40.928Z,100718.00
2022-12-12T16:49:15.347Z,100713.63
2022-12-12T16:51:43.987Z,100701.19
2022-12-12T16:54:16.918Z,100704.59
2022-12-12T16:56:50.563Z,100700.22
2022-12-12T16:59:18.690Z,100700.22
2022-12-12T17:01:46.834Z,100695.69
2022-12-12T17:04:22.429Z,100689.50
2022-12-12T17:06:51.094Z,100650.38
2022-12-12T17:09:21.414Z,100691.19
2022-12-12T17:11:49.566Z,100694.00
2022-12-12T17:14:21.641Z,100694.00
2022-12-12T17:16:49.779Z,100691.19
2022-12-12T17:19:19.233Z,100696.28
2022-12-12T17:21:47.300Z,100685.81
2022-12-12T17:24:15.511Z,100702.91
2022-12-12T17:26:43.778Z,100694.03
2022-12-12T17:29:11.841Z,100693.16
2022-12-12T17:31:40.823Z,100693.59
2022-12-12T17:34:08.820Z,100688.94
2022-12-12T17:36:38.175Z,100691.63
2022-12-12T17:39:06.309Z,100690.91
2022-12-12T17:41:34.379Z,100690.19
2022-12-12T17:44:02.337Z,100691.03
2022-12-12T17:46:30.323Z,100694.59
2022-12-12T17:49:02.011Z,100699.94
2022-12-12T17:51:30.960Z,100693.16
2022-12-12T17:54:00.726Z,100690.19
2022-12-12T17:56:28.986Z,100686.69
2022-12-12T17:58:57.078Z,100683.00
2022-12-12T18:01:27.557Z,100690.19
2022-12-12T18:03:56.445Z,100699.94
2022-12-12T18:06:25.082Z,100689.50
2022-12-12T18:08:53.599Z,100687.50
2022-12-12T18:11:24.792Z,100684.97
2022-12-12T18:13:54.684Z,100697.53
2022-12-12T18:16:24.636Z,100691.19
2022-12-12T18:18:53.159Z,100696.53
2022-12-12T18:21:51.775Z,100694.84
2022-12-12T18:24:11.352Z,100682.88
2022-12-12T18:26:40.805Z,100701.06
2022-12-12T18:29:10.068Z,100702.75
2022-12-12T18:31:38.136Z,100697.53
2022-12-12T18:34:06.923Z,100681.59
2022-12-12T18:36:34.909Z,100680.47
2022-12-12T18:39:06.177Z,100685.81
2022-12-12T18:41:36.716Z,100678.78
2022-12-12T18:44:08.165Z,100673.41
2022-12-12T18:46:42.675Z,100675.09
2022-12-12T18:49:13.071Z,100667.19
2022-12-12T18:51:41.168Z,100676.78
2022-12-12T18:54:14.295Z,100669.72
2022-12-12T18:56:43.703Z,100672.41
2022-12-12T18:59:13.326Z,100676.09
2022-12-12T19:01:41.409Z,100675.09
2022-12-12T19:04:14.169Z,100682.13
2022-12-12T19:06:44.304Z,100654.47
2022-12-12T19:09:15.702Z,100671.41
2022-12-12T19:11:44.362Z,100672.28
2022-12-12T19:14:15.515Z,100658.00
2022-12-12T19:16:44.335Z,100669.72
2022-12-12T19:19:13.081Z,100664.38
2022-12-12T19:21:41.882Z,100662.69
2022-12-12T19:24:12.552Z,100657.31
2022-12-12T19:26:42.127Z,100657.31
2022-12-12T19:29:14.110Z,100657.31
2022-12-12T19:31:42.109Z,100652.78
2022-12-12T19:34:13.101Z,100654.66
2022-12-12T19:36:41.424Z,100655.31
2022-12-12T19:39:10.011Z,100659.88
2022-12-12T19:41:38.158Z,100659.00
2022-12-12T19:44:09.007Z,100649.97
2022-12-12T19:46:38.367Z,100644.59
2022-12-12T19:49:08.660Z,100659.88
2022-12-12T19:51:39.242Z,100660.69
2022-12-12T19:54:09.602Z,100660.69
2022-12-12T19:56:40.659Z,100669.72
2022-12-12T19:59:09.208Z,100660.28
2022-12-12T20:01:39.342Z,100662.69
2022-12-12T20:04:09.817Z,100663.66
2022-12-12T20:06:42.190Z,100663.50
2022-12-12T20:09:11.508Z,100642.63
2022-12-12T20:11:40.061Z,100660.28
2022-12-12T20:14:08.416Z,100671.56
2022-12-12T20:16:36.382Z,100664.66
2022-12-12T20:19:06.112Z,100658.16
2022-12-12T20:24:24.172Z,100668.06
2022-12-12T20:26:52.865Z,100650.53
2022-12-12T20:29:21.702Z,100655.59
2022-12-12T20:31:50.153Z,100652.09
2022-12-12T20:34:22.671Z,100662.81
2022-12-12T20:36:50.713Z,100656.59
2022-12-12T20:39:24.351Z,100652.25
2022-12-12T20:41:53.674Z,100648.56
2022-12-12T20:44:22.633Z,100652.25
2022-12-12T20:46:50.823Z,100647.56
2022-12-12T20:49:24.074Z,100639.81
2022-12-12T20:51:59.671Z,100649.41
2022-12-12T20:54:29.540Z,100644.88
2022-12-12T20:56:58.992Z,100662.69
2022-12-12T20:59:27.969Z,100653.94
2022-12-12T21:01:56.269Z,100651.25
2022-12-12T21:04:26.040Z,100648.84
2022-12-12T21:06:54.062Z,100653.94
2022-12-12T21:09:26.408Z,100655.88
2022-12-12T21:11:55.613Z,100650.53
2022-12-12T21:14:24.313Z,100650.53
2022-12-12T21:16:52.335Z,100655.88
2022-12-12T21:19:21.150Z,100648.56
2022-12-12T21:21:50.728Z,100656.59
2022-12-12T21:24:19.233Z,100652.25
2022-12-12T21:26:47.815Z,100659.28
2022-12-12T21:29:16.264Z,100661.25
2022-12-12T21:31:50.956Z,100659.56
2022-12-12T21:34:20.391Z,100661.25
2022-12-12T21:36:53.558Z,100656.88
2022-12-12T21:39:23.129Z,100661.25
2022-12-12T21:41:51.572Z,100664.94
2022-12-12T21:44:20.020Z,100670.28
2022-12-12T21:46:48.218Z,100652.53
2022-12-12T21:49:27.647Z,100656.88
2022-12-12T21:51:59.001Z,100664.94
2022-12-12T21:54:29.222Z,100660.44
2022-12-12T21:56:57.316Z,100650.53
2022-12-12T21:59:25.751Z,100615.81
2022-12-12T22:01:55.729Z,100659.28
2022-12-12T22:04:23.715Z,100662.69
2022-12-12T22:06:51.730Z,100660.97
2022-12-12T22:09:21.066Z,100671.69
2022-12-12T22:11:52.100Z,100671.69
2022-12-12T22:14:30.905Z,100668.31
2022-12-12T22:16:58.950Z,100662.97
2022-12-12T22:19:26.987Z,100662.09
2022-12-12T22:21:54.949Z,100662.97
2022-12-12T22:24:24.329Z,100655.88
2022-12-12T22:26:52.288Z,100661.97
2022-12-12T22:29:21.436Z,100659.28
2022-12-12T22:31:52.275Z,100643.47
2022-12-12T22:34:22.437Z,100658.44
2022-12-12T22:36:51.026Z,100650.53
2022-12-12T22:39:21.655Z,100644.63
2022-12-12T22:41:51.362Z,100653.22
2022-12-12T22:44:21.504Z,100624.56
2022-12-12T22:46:51.032Z,100647.84
2022-12-12T22:49:21.147Z,100639.81
2022-12-12T22:51:50.636Z,100639.81
2022-12-12T22:54:19.306Z,100637.84
2022-12-12T22:56:47.272Z,100629.06
2022-12-12T22:59:16.623Z,100632.63
2022-12-12T23:01:44.737Z,100629.06
2022-12-12T23:04:13.956Z,100628.78
2022-12-12T23:06:43.411Z,100632.47
2022-12-12T23:09:15.442Z,100626.41
2022-12-12T23:11:44.483Z,100634.16
2022-12-12T23:14:14.899Z,100635.03
2022-12-12T23:16:45.248Z,100640.38
2022-12-12T23:19:15.785Z,100630.50
2022-12-12T23:21:43.858Z,100630.50
2022-12-12T23:24:12.104Z,100629.66
2022-12-12T23:26:40.751Z,100623.44
2022-12-12T23:29:10.242Z,100624.28
2022-12-12T23:31:40.015Z,100623.44
2022-12-12T23:34:15.514Z,100619.78
2022-12-12T23:36:43.968Z,100627.84
2022-12-12T23:39:12.638Z,100624.28
2022-12-12T23:41:40.769Z,100621.63
2022-12-12T23:44:09.661Z,100619.78
2022-12-12T23:46:37.588Z,100614.44
2022-12-12T23:49:07.834Z,100619.78
2022-12-12T23:51:38.933Z,100607.94
2022-12-12T23:54:08.864Z,100614.44
2022-12-12T23:56:36.956Z,100619.78
2022-12-12T23:59:05.283Z,100600.88
